sensor_id;sensor_type;location;lat;lon;timestamp;P1;durP1;ratioP1;P2;durP2;ratioP2
7729;SDS011;3908;52.310;7.230;2023-03-16T00:01:58;6.50;;;3.20;;
7729;SDS011;3908;52.310;7.230;2023-03-16T00:04:46;5.80;;;3.17;;
7729;SDS011;3908;52.310;7.230;2023-03-16T00:07:32;9.63;;;3.87;;
7729;SDS011;3908;52.310;7.230;2023-03-16T00:10:19;7.00;;;3.63;;
7729;SDS011;3908;52.310;7.230;2023-03-16T00:13:12;7.70;;;3.70;;
7729;SDS011;3908;52.310;7.230;2023-03-16T00:15:59;4.93;;;3.30;;
7729;SDS011;3908;52.310;7.230;2023-03-16T00:18:47;9.97;;;3.80;;
7729;SDS011;3908;52.310;7.230;2023-03-16T00:21:35;5.37;;;3.37;;
7729;SDS011;3908;52.310;7.230;2023-03-16T00:24:22;4.90;;;3.30;;
7729;SDS011;3908;52.310;7.230;2023-03-16T00:27:09;6.23;;;3.37;;
7729;SDS011;3908;52.310;7.230;2023-03-16T00:29:59;5.40;;;2.97;;
7729;SDS011;3908;52.310;7.230;2023-03-16T00:32:47;8.40;;;4.00;;
7729;SDS011;3908;52.310;7.230;2023-03-16T00:35:34;7.63;;;4.00;;
7729;SDS011;3908;52.310;7.230;2023-03-16T00:38:22;4.03;;;3.20;;
7729;SDS011;3908;52.310;7.230;2023-03-16T00:41:09;6.57;;;3.60;;
7729;SDS011;3908;52.310;7.230;2023-03-16T00:43:58;7.70;;;3.47;;
7729;SDS011;3908;52.310;7.230;2023-03-16T00:46:45;7.33;;;3.53;;
7729;SDS011;3908;52.310;7.230;2023-03-16T00:49:32;6.10;;;3.53;;
7729;SDS011;3908;52.310;7.230;2023-03-16T00:52:19;6.90;;;3.90;;
7729;SDS011;3908;52.310;7.230;2023-03-16T00:55:09;7.27;;;3.40;;
7729;SDS011;3908;52.310;7.230;2023-03-16T00:57:56;8.43;;;3.60;;
7729;SDS011;3908;52.310;7.230;2023-03-16T01:00:42;8.73;;;4.23;;
7729;SDS011;3908;52.310;7.230;2023-03-16T01:03:30;7.60;;;3.57;;
7729;SDS011;3908;52.310;7.230;2023-03-16T01:06:17;8.53;;;3.90;;
7729;SDS011;3908;52.310;7.230;2023-03-16T01:09:04;5.57;;;3.77;;
7729;SDS011;3908;52.310;7.230;2023-03-16T01:11:53;8.73;;;4.00;;
7729;SDS011;3908;52.310;7.230;2023-03-16T01:14:40;6.53;;;3.77;;
7729;SDS011;3908;52.310;7.230;2023-03-16T01:17:26;10.17;;;4.53;;
7729;SDS011;3908;52.310;7.230;2023-03-16T01:20:13;8.87;;;4.17;;
7729;SDS011;3908;52.310;7.230;2023-03-16T01:23:03;9.07;;;4.37;;
7729;SDS011;3908;52.310;7.230;2023-03-16T01:25:50;8.03;;;4.40;;
7729;SDS011;3908;52.310;7.230;2023-03-16T01:28:39;9.10;;;4.73;;
7729;SDS011;3908;52.310;7.230;2023-03-16T01:31:26;7.80;;;3.83;;
7729;SDS011;3908;52.310;7.230;2023-03-16T01:34:13;5.80;;;3.87;;
7729;SDS011;3908;52.310;7.230;2023-03-16T01:37:03;9.50;;;3.80;;
7729;SDS011;3908;52.310;7.230;2023-03-16T01:39:49;7.37;;;4.13;;
7729;SDS011;3908;52.310;7.230;2023-03-16T01:42:46;11.50;;;4.10;;
7729;SDS011;3908;52.310;7.230;2023-03-16T01:48:40;5.90;;;3.80;;
7729;SDS011;3908;52.310;7.230;2023-03-16T01:51:30;5.63;;;3.50;;
7729;SDS011;3908;52.310;7.230;2023-03-16T01:54:20;7.93;;;4.13;;
7729;SDS011;3908;52.310;7.230;2023-03-16T01:57:08;5.87;;;4.33;;
7729;SDS011;3908;52.310;7.230;2023-03-16T01:59:56;7.97;;;4.30;;
7729;SDS011;3908;52.310;7.230;2023-03-16T02:02:53;10.30;;;3.97;;
7729;SDS011;3908;52.310;7.230;2023-03-16T02:05:43;7.57;;;4.43;;
7729;SDS011;3908;52.310;7.230;2023-03-16T02:08:31;8.10;;;4.13;;
7729;SDS011;3908;52.310;7.230;2023-03-16T02:11:18;6.80;;;4.83;;
7729;SDS011;3908;52.310;7.230;2023-03-16T02:14:07;8.37;;;3.93;;
7729;SDS011;3908;52.310;7.230;2023-03-16T02:16:55;6.67;;;4.33;;
7729;SDS011;3908;52.310;7.230;2023-03-16T02:19:43;8.07;;;4.90;;
7729;SDS011;3908;52.310;7.230;2023-03-16T02:22:33;10.27;;;5.30;;
7729;SDS011;3908;52.310;7.230;2023-03-16T02:25:22;8.23;;;4.40;;
7729;SDS011;3908;52.310;7.230;2023-03-16T02:28:10;10.90;;;4.27;;
7729;SDS011;3908;52.310;7.230;2023-03-16T02:31:01;7.47;;;4.77;;
7729;SDS011;3908;52.310;7.230;2023-03-16T02:33:48;8.47;;;4.30;;
7729;SDS011;3908;52.310;7.230;2023-03-16T02:36:35;8.43;;;4.13;;
7729;SDS011;3908;52.310;7.230;2023-03-16T02:39:23;6.40;;;4.40;;
7729;SDS011;3908;52.310;7.230;2023-03-16T02:42:11;6.47;;;4.23;;
7729;SDS011;3908;52.310;7.230;2023-03-16T02:44:58;11.23;;;4.40;;
7729;SDS011;3908;52.310;7.230;2023-03-16T02:47:47;7.27;;;5.13;;
7729;SDS011;3908;52.310;7.230;2023-03-16T02:50:41;7.43;;;3.97;;
7729;SDS011;3908;52.310;7.230;2023-03-16T02:53:27;8.83;;;4.47;;
7729;SDS011;3908;52.310;7.230;2023-03-16T02:56:14;6.83;;;4.77;;
7729;SDS011;3908;52.310;7.230;2023-03-16T02:59:01;8.03;;;4.33;;
7729;SDS011;3908;52.310;7.230;2023-03-16T03:01:48;7.53;;;4.17;;
7729;SDS011;3908;52.310;7.230;2023-03-16T03:04:37;7.90;;;4.20;;
7729;SDS011;3908;52.310;7.230;2023-03-16T03:07:23;8.63;;;4.43;;
7729;SDS011;3908;52.310;7.230;2023-03-16T03:10:16;6.53;;;4.87;;
7729;SDS011;3908;52.310;7.230;2023-03-16T03:13:04;8.77;;;4.37;;
7729;SDS011;3908;52.310;7.230;2023-03-16T03:15:51;8.93;;;4.43;;
7729;SDS011;3908;52.310;7.230;2023-03-16T03:18:38;7.07;;;4.07;;
7729;SDS011;3908;52.310;7.230;2023-03-16T03:21:26;9.80;;;4.17;;
7729;SDS011;3908;52.310;7.230;2023-03-16T03:24:13;6.70;;;5.33;;
7729;SDS011;3908;52.310;7.230;2023-03-16T03:27:00;6.40;;;4.13;;
7729;SDS011;3908;52.310;7.230;2023-03-16T03:29:50;6.80;;;4.07;;
7729;SDS011;3908;52.310;7.230;2023-03-16T03:32:36;9.27;;;4.17;;
7729;SDS011;3908;52.310;7.230;2023-03-16T03:35:23;8.23;;;5.10;;
7729;SDS011;3908;52.310;7.230;2023-03-16T03:38:11;7.80;;;4.37;;
7729;SDS011;3908;52.310;7.230;2023-03-16T03:40:58;8.60;;;4.47;;
7729;SDS011;3908;52.310;7.230;2023-03-16T03:43:45;6.43;;;4.17;;
7729;SDS011;3908;52.310;7.230;2023-03-16T03:46:31;7.30;;;4.50;;
7729;SDS011;3908;52.310;7.230;2023-03-16T03:49:18;6.33;;;3.97;;
7729;SDS011;3908;52.310;7.230;2023-03-16T03:52:05;7.17;;;4.40;;
7729;SDS011;3908;52.310;7.230;2023-03-16T03:54:53;8.20;;;4.80;;
7729;SDS011;3908;52.310;7.230;2023-03-16T03:57:40;8.23;;;4.43;;
7729;SDS011;3908;52.310;7.230;2023-03-16T04:00:27;6.00;;;3.83;;
7729;SDS011;3908;52.310;7.230;2023-03-16T04:03:13;10.10;;;4.60;;
7729;SDS011;3908;52.310;7.230;2023-03-16T04:06:01;5.93;;;3.80;;
7729;SDS011;3908;52.310;7.230;2023-03-16T04:08:48;6.77;;;3.77;;
7729;SDS011;3908;52.310;7.230;2023-03-16T04:11:36;8.63;;;4.33;;
7729;SDS011;3908;52.310;7.230;2023-03-16T04:14:23;6.13;;;3.90;;
7729;SDS011;3908;52.310;7.230;2023-03-16T04:17:10;6.13;;;4.10;;
7729;SDS011;3908;52.310;7.230;2023-03-16T04:19:57;6.00;;;3.63;;
7729;SDS011;3908;52.310;7.230;2023-03-16T04:22:44;6.07;;;4.07;;
7729;SDS011;3908;52.310;7.230;2023-03-16T04:25:31;9.17;;;4.23;;
7729;SDS011;3908;52.310;7.230;2023-03-16T04:28:20;7.40;;;4.43;;
7729;SDS011;3908;52.310;7.230;2023-03-16T04:31:07;10.07;;;4.43;;
7729;SDS011;3908;52.310;7.230;2023-03-16T04:33:55;6.30;;;4.33;;
7729;SDS011;3908;52.310;7.230;2023-03-16T04:36:41;9.23;;;4.80;;
7729;SDS011;3908;52.310;7.230;2023-03-16T04:39:28;9.77;;;3.93;;
7729;SDS011;3908;52.310;7.230;2023-03-16T04:42:15;5.93;;;4.33;;
7729;SDS011;3908;52.310;7.230;2023-03-16T04:45:03;8.33;;;4.50;;
7729;SDS011;3908;52.310;7.230;2023-03-16T04:47:50;8.07;;;4.50;;
7729;SDS011;3908;52.310;7.230;2023-03-16T04:50:37;19.00;;;4.13;;
7729;SDS011;3908;52.310;7.230;2023-03-16T04:53:24;8.30;;;3.80;;
7729;SDS011;3908;52.310;7.230;2023-03-16T04:56:10;9.43;;;3.87;;
7729;SDS011;3908;52.310;7.230;2023-03-16T04:59:02;5.73;;;3.43;;
7729;SDS011;3908;52.310;7.230;2023-03-16T05:01:50;8.30;;;3.77;;
7729;SDS011;3908;52.310;7.230;2023-03-16T05:04:38;8.90;;;3.87;;
7729;SDS011;3908;52.310;7.230;2023-03-16T05:07:24;5.63;;;3.90;;
7729;SDS011;3908;52.310;7.230;2023-03-16T05:10:12;7.27;;;4.00;;
7729;SDS011;3908;52.310;7.230;2023-03-16T05:12:59;7.83;;;3.53;;
7729;SDS011;3908;52.310;7.230;2023-03-16T05:15:46;6.43;;;3.60;;
7729;SDS011;3908;52.310;7.230;2023-03-16T05:18:34;5.00;;;3.13;;
7729;SDS011;3908;52.310;7.230;2023-03-16T05:21:21;8.63;;;5.00;;
7729;SDS011;3908;52.310;7.230;2023-03-16T05:24:08;7.07;;;3.87;;
7729;SDS011;3908;52.310;7.230;2023-03-16T05:26:54;8.50;;;3.83;;
7729;SDS011;3908;52.310;7.230;2023-03-16T05:29:41;6.63;;;4.20;;
7729;SDS011;3908;52.310;7.230;2023-03-16T05:32:30;9.37;;;4.37;;
7729;SDS011;3908;52.310;7.230;2023-03-16T05:35:18;6.57;;;3.87;;
7729;SDS011;3908;52.310;7.230;2023-03-16T05:38:05;8.23;;;3.57;;
7729;SDS011;3908;52.310;7.230;2023-03-16T05:40:53;7.57;;;3.57;;
7729;SDS011;3908;52.310;7.230;2023-03-16T05:43:39;7.27;;;3.67;;
7729;SDS011;3908;52.310;7.230;2023-03-16T05:46:26;6.50;;;3.20;;
7729;SDS011;3908;52.310;7.230;2023-03-16T05:49:13;7.80;;;3.77;;
7729;SDS011;3908;52.310;7.230;2023-03-16T05:52:01;7.07;;;3.17;;
7729;SDS011;3908;52.310;7.230;2023-03-16T05:54:48;8.10;;;4.10;;
7729;SDS011;3908;52.310;7.230;2023-03-16T05:57:35;5.93;;;3.50;;
7729;SDS011;3908;52.310;7.230;2023-03-16T06:00:22;7.33;;;3.07;;
7729;SDS011;3908;52.310;7.230;2023-03-16T06:03:10;6.63;;;4.10;;
7729;SDS011;3908;52.310;7.230;2023-03-16T06:05:57;8.13;;;3.73;;
7729;SDS011;3908;52.310;7.230;2023-03-16T06:08:45;4.03;;;3.50;;
7729;SDS011;3908;52.310;7.230;2023-03-16T06:11:32;7.67;;;3.33;;
7729;SDS011;3908;52.310;7.230;2023-03-16T06:14:19;4.10;;;3.33;;
7729;SDS011;3908;52.310;7.230;2023-03-16T06:17:05;6.33;;;3.40;;
7729;SDS011;3908;52.310;7.230;2023-03-16T06:19:52;3.47;;;2.93;;
7729;SDS011;3908;52.310;7.230;2023-03-16T06:22:39;7.20;;;3.30;;
7729;SDS011;3908;52.310;7.230;2023-03-16T06:25:28;5.67;;;3.07;;
7729;SDS011;3908;52.310;7.230;2023-03-16T06:28:15;5.73;;;3.30;;
7729;SDS011;3908;52.310;7.230;2023-03-16T06:31:02;8.40;;;3.40;;
7729;SDS011;3908;52.310;7.230;2023-03-16T06:33:49;6.00;;;2.97;;
7729;SDS011;3908;52.310;7.230;2023-03-16T06:36:35;6.77;;;2.93;;
7729;SDS011;3908;52.310;7.230;2023-03-16T06:39:24;5.43;;;2.90;;
7729;SDS011;3908;52.310;7.230;2023-03-16T06:42:12;7.57;;;3.50;;
7729;SDS011;3908;52.310;7.230;2023-03-16T06:44:59;7.03;;;3.30;;
7729;SDS011;3908;52.310;7.230;2023-03-16T06:47:45;5.20;;;3.00;;
7729;SDS011;3908;52.310;7.230;2023-03-16T06:50:32;5.87;;;3.40;;
7729;SDS011;3908;52.310;7.230;2023-03-16T06:53:19;8.97;;;3.07;;
7729;SDS011;3908;52.310;7.230;2023-03-16T06:56:06;4.80;;;3.03;;
7729;SDS011;3908;52.310;7.230;2023-03-16T06:58:54;3.57;;;2.80;;
7729;SDS011;3908;52.310;7.230;2023-03-16T07:01:41;5.57;;;2.87;;
7729;SDS011;3908;52.310;7.230;2023-03-16T07:04:29;5.40;;;2.87;;
7729;SDS011;3908;52.310;7.230;2023-03-16T07:07:16;6.73;;;3.03;;
7729;SDS011;3908;52.310;7.230;2023-03-16T07:10:04;8.17;;;2.83;;
7729;SDS011;3908;52.310;7.230;2023-03-16T07:12:50;4.77;;;3.03;;
7729;SDS011;3908;52.310;7.230;2023-03-16T07:15:39;6.93;;;3.20;;
7729;SDS011;3908;52.310;7.230;2023-03-16T07:18:25;6.47;;;3.40;;
7729;SDS011;3908;52.310;7.230;2023-03-16T07:21:14;7.17;;;3.43;;
7729;SDS011;3908;52.310;7.230;2023-03-16T07:24:01;11.90;;;3.67;;
7729;SDS011;3908;52.310;7.230;2023-03-16T07:26:48;5.03;;;3.40;;
7729;SDS011;3908;52.310;7.230;2023-03-16T07:29:34;6.07;;;3.00;;
7729;SDS011;3908;52.310;7.230;2023-03-16T07:32:22;5.10;;;3.70;;
7729;SDS011;3908;52.310;7.230;2023-03-16T07:35:09;7.97;;;3.33;;
7729;SDS011;3908;52.310;7.230;2023-03-16T07:37:56;4.97;;;3.27;;
7729;SDS011;3908;52.310;7.230;2023-03-16T07:40:43;6.70;;;3.63;;
7729;SDS011;3908;52.310;7.230;2023-03-16T07:43:30;4.80;;;3.40;;
7729;SDS011;3908;52.310;7.230;2023-03-16T07:46:17;6.00;;;3.17;;
7729;SDS011;3908;52.310;7.230;2023-03-16T07:49:05;5.03;;;3.63;;
7729;SDS011;3908;52.310;7.230;2023-03-16T07:51:54;9.57;;;3.27;;
7729;SDS011;3908;52.310;7.230;2023-03-16T07:54:40;6.13;;;3.43;;
7729;SDS011;3908;52.310;7.230;2023-03-16T07:57:27;4.73;;;3.37;;
7729;SDS011;3908;52.310;7.230;2023-03-16T08:00:15;6.33;;;3.70;;
7729;SDS011;3908;52.310;7.230;2023-03-16T08:03:04;3.70;;;3.17;;
7729;SDS011;3908;52.310;7.230;2023-03-16T08:05:53;5.50;;;3.73;;
7729;SDS011;3908;52.310;7.230;2023-03-16T08:08:40;7.37;;;3.43;;
7729;SDS011;3908;52.310;7.230;2023-03-16T08:11:27;5.73;;;3.63;;
7729;SDS011;3908;52.310;7.230;2023-03-16T08:14:14;9.83;;;3.83;;
7729;SDS011;3908;52.310;7.230;2023-03-16T08:17:01;7.73;;;3.73;;
7729;SDS011;3908;52.310;7.230;2023-03-16T08:19:48;6.80;;;3.90;;
7729;SDS011;3908;52.310;7.230;2023-03-16T08:22:36;6.87;;;3.80;;
7729;SDS011;3908;52.310;7.230;2023-03-16T08:25:22;8.00;;;3.90;;
7729;SDS011;3908;52.310;7.230;2023-03-16T08:28:09;9.87;;;4.93;;
7729;SDS011;3908;52.310;7.230;2023-03-16T08:30:57;7.83;;;4.13;;
7729;SDS011;3908;52.310;7.230;2023-03-16T08:33:44;6.40;;;3.87;;
7729;SDS011;3908;52.310;7.230;2023-03-16T08:36:32;6.60;;;3.60;;
7729;SDS011;3908;52.310;7.230;2023-03-16T08:39:20;7.87;;;4.13;;
7729;SDS011;3908;52.310;7.230;2023-03-16T08:42:07;6.00;;;4.30;;
7729;SDS011;3908;52.310;7.230;2023-03-16T08:44:54;6.93;;;4.00;;
7729;SDS011;3908;52.310;7.230;2023-03-16T08:47:41;7.00;;;4.13;;
7729;SDS011;3908;52.310;7.230;2023-03-16T08:50:27;7.87;;;4.30;;
7729;SDS011;3908;52.310;7.230;2023-03-16T08:53:14;6.10;;;3.70;;
7729;SDS011;3908;52.310;7.230;2023-03-16T08:56:03;5.97;;;3.83;;
7729;SDS011;3908;52.310;7.230;2023-03-16T08:58:50;6.70;;;3.80;;
7729;SDS011;3908;52.310;7.230;2023-03-16T09:01:37;5.80;;;4.00;;
7729;SDS011;3908;52.310;7.230;2023-03-16T09:04:24;7.40;;;4.50;;
7729;SDS011;3908;52.310;7.230;2023-03-16T09:07:12;8.20;;;4.50;;
7729;SDS011;3908;52.310;7.230;2023-03-16T09:09:59;7.20;;;3.97;;
7729;SDS011;3908;52.310;7.230;2023-03-16T09:12:47;7.47;;;4.10;;
7729;SDS011;3908;52.310;7.230;2023-03-16T09:15:34;5.63;;;4.00;;
7729;SDS011;3908;52.310;7.230;2023-03-16T09:18:22;5.53;;;4.03;;
7729;SDS011;3908;52.310;7.230;2023-03-16T09:21:11;7.83;;;4.07;;
7729;SDS011;3908;52.310;7.230;2023-03-16T09:23:58;6.63;;;3.87;;
7729;SDS011;3908;52.310;7.230;2023-03-16T09:26:45;8.50;;;4.10;;
7729;SDS011;3908;52.310;7.230;2023-03-16T09:29:33;9.47;;;3.73;;
7729;SDS011;3908;52.310;7.230;2023-03-16T09:32:21;9.70;;;4.23;;
7729;SDS011;3908;52.310;7.230;2023-03-16T09:35:08;5.63;;;3.90;;
7729;SDS011;3908;52.310;7.230;2023-03-16T09:37:54;5.70;;;3.60;;
7729;SDS011;3908;52.310;7.230;2023-03-16T09:40:42;8.33;;;4.33;;
7729;SDS011;3908;52.310;7.230;2023-03-16T09:43:36;5.40;;;3.77;;
7729;SDS011;3908;52.310;7.230;2023-03-16T09:46:27;6.63;;;3.90;;
7729;SDS011;3908;52.310;7.230;2023-03-16T09:49:15;6.70;;;3.90;;
7729;SDS011;3908;52.310;7.230;2023-03-16T09:52:04;6.40;;;3.73;;
7729;SDS011;3908;52.310;7.230;2023-03-16T09:54:55;6.87;;;4.43;;
7729;SDS011;3908;52.310;7.230;2023-03-16T09:57:43;6.73;;;3.80;;
7729;SDS011;3908;52.310;7.230;2023-03-16T10:00:33;7.73;;;3.80;;
7729;SDS011;3908;52.310;7.230;2023-03-16T10:03:27;9.50;;;4.20;;
7729;SDS011;3908;52.310;7.230;2023-03-16T10:06:15;6.37;;;4.10;;
7729;SDS011;3908;52.310;7.230;2023-03-16T10:09:04;5.67;;;4.07;;
7729;SDS011;3908;52.310;7.230;2023-03-16T10:11:52;8.30;;;4.23;;
7729;SDS011;3908;52.310;7.230;2023-03-16T10:14:42;5.53;;;3.80;;
7729;SDS011;3908;52.310;7.230;2023-03-16T10:17:31;7.63;;;3.60;;
7729;SDS011;3908;52.310;7.230;2023-03-16T10:20:23;4.67;;;3.67;;
7729;SDS011;3908;52.310;7.230;2023-03-16T10:23:12;6.83;;;3.60;;
7729;SDS011;3908;52.310;7.230;2023-03-16T10:26:03;3.93;;;2.97;;
7729;SDS011;3908;52.310;7.230;2023-03-16T10:28:57;8.47;;;3.30;;
7729;SDS011;3908;52.310;7.230;2023-03-16T10:31:45;6.77;;;3.20;;
7729;SDS011;3908;52.310;7.230;2023-03-16T10:34:33;8.70;;;3.50;;
7729;SDS011;3908;52.310;7.230;2023-03-16T10:37:21;5.83;;;3.60;;
7729;SDS011;3908;52.310;7.230;2023-03-16T10:40:10;5.50;;;3.43;;
7729;SDS011;3908;52.310;7.230;2023-03-16T10:43:03;8.90;;;3.67;;
7729;SDS011;3908;52.310;7.230;2023-03-16T10:45:50;8.20;;;3.93;;
7729;SDS011;3908;52.310;7.230;2023-03-16T10:48:39;4.77;;;3.33;;
7729;SDS011;3908;52.310;7.230;2023-03-16T10:51:27;5.77;;;3.40;;
7729;SDS011;3908;52.310;7.230;2023-03-16T10:54:18;6.80;;;3.03;;
7729;SDS011;3908;52.310;7.230;2023-03-16T10:57:12;5.40;;;3.20;;
7729;SDS011;3908;52.310;7.230;2023-03-16T11:00:03;5.77;;;3.53;;
7729;SDS011;3908;52.310;7.230;2023-03-16T11:03:00;6.90;;;3.87;;
7729;SDS011;3908;52.310;7.230;2023-03-16T11:05:55;6.87;;;4.00;;
7729;SDS011;3908;52.310;7.230;2023-03-16T11:08:42;5.40;;;3.40;;
7729;SDS011;3908;52.310;7.230;2023-03-16T11:11:31;5.10;;;3.40;;
7729;SDS011;3908;52.310;7.230;2023-03-16T11:14:19;7.20;;;3.27;;
7729;SDS011;3908;52.310;7.230;2023-03-16T11:17:09;7.63;;;3.87;;
7729;SDS011;3908;52.310;7.230;2023-03-16T11:19:57;6.87;;;3.37;;
7729;SDS011;3908;52.310;7.230;2023-03-16T11:22:46;6.00;;;2.97;;
7729;SDS011;3908;52.310;7.230;2023-03-16T11:25:35;4.30;;;3.10;;
7729;SDS011;3908;52.310;7.230;2023-03-16T11:28:29;5.70;;;3.50;;
7729;SDS011;3908;52.310;7.230;2023-03-16T11:31:21;6.07;;;3.87;;
7729;SDS011;3908;52.310;7.230;2023-03-16T11:34:12;4.63;;;3.33;;
7729;SDS011;3908;52.310;7.230;2023-03-16T11:37:02;5.93;;;3.13;;
7729;SDS011;3908;52.310;7.230;2023-03-16T11:39:53;6.57;;;3.80;;
7729;SDS011;3908;52.310;7.230;2023-03-16T11:42:43;6.00;;;3.50;;
7729;SDS011;3908;52.310;7.230;2023-03-16T11:45:37;5.03;;;3.50;;
7729;SDS011;3908;52.310;7.230;2023-03-16T11:48:28;7.60;;;4.03;;
7729;SDS011;3908;52.310;7.230;2023-03-16T11:51:25;6.20;;;3.30;;
7729;SDS011;3908;52.310;7.230;2023-03-16T11:54:15;5.83;;;3.37;;
7729;SDS011;3908;52.310;7.230;2023-03-16T11:57:13;5.93;;;3.53;;
7729;SDS011;3908;52.310;7.230;2023-03-16T12:00:08;4.87;;;3.20;;
7729;SDS011;3908;52.310;7.230;2023-03-16T12:05:56;4.10;;;3.10;;
7729;SDS011;3908;52.310;7.230;2023-03-16T12:11:46;7.93;;;3.03;;
7729;SDS011;3908;52.310;7.230;2023-03-16T12:14:36;6.77;;;3.50;;
7729;SDS011;3908;52.310;7.230;2023-03-16T12:17:26;4.93;;;3.30;;
7729;SDS011;3908;52.310;7.230;2023-03-16T12:20:15;5.37;;;3.00;;
7729;SDS011;3908;52.310;7.230;2023-03-16T12:23:04;4.00;;;2.83;;
7729;SDS011;3908;52.310;7.230;2023-03-16T12:25:53;5.73;;;3.30;;
7729;SDS011;3908;52.310;7.230;2023-03-16T12:28:42;5.53;;;3.30;;
7729;SDS011;3908;52.310;7.230;2023-03-16T12:31:31;5.90;;;3.03;;
7729;SDS011;3908;52.310;7.230;2023-03-16T12:34:24;4.87;;;3.20;;
7729;SDS011;3908;52.310;7.230;2023-03-16T12:37:21;3.93;;;2.83;;
7729;SDS011;3908;52.310;7.230;2023-03-16T12:40:19;5.47;;;3.17;;
7729;SDS011;3908;52.310;7.230;2023-03-16T12:43:21;3.67;;;2.87;;
7729;SDS011;3908;52.310;7.230;2023-03-16T12:46:12;11.87;;;3.00;;
7729;SDS011;3908;52.310;7.230;2023-03-16T12:49:01;2.53;;;2.30;;
7729;SDS011;3908;52.310;7.230;2023-03-16T12:51:57;3.27;;;2.50;;
7729;SDS011;3908;52.310;7.230;2023-03-16T12:54:51;3.83;;;2.87;;
7729;SDS011;3908;52.310;7.230;2023-03-16T12:57:39;3.60;;;2.40;;
7729;SDS011;3908;52.310;7.230;2023-03-16T13:00:34;6.30;;;2.60;;
7729;SDS011;3908;52.310;7.230;2023-03-16T13:03:22;3.17;;;2.40;;
7729;SDS011;3908;52.310;7.230;2023-03-16T13:06:17;3.47;;;2.30;;
7729;SDS011;3908;52.310;7.230;2023-03-16T13:09:04;5.83;;;2.40;;
7729;SDS011;3908;52.310;7.230;2023-03-16T13:11:51;11.07;;;2.93;;
7729;SDS011;3908;52.310;7.230;2023-03-16T13:14:40;3.17;;;2.37;;
7729;SDS011;3908;52.310;7.230;2023-03-16T13:17:29;5.27;;;2.40;;
7729;SDS011;3908;52.310;7.230;2023-03-16T13:20:23;4.83;;;2.43;;
7729;SDS011;3908;52.310;7.230;2023-03-16T13:23:20;3.97;;;2.50;;
7729;SDS011;3908;52.310;7.230;2023-03-16T13:26:12;3.30;;;2.40;;
7729;SDS011;3908;52.310;7.230;2023-03-16T13:29:02;3.37;;;2.47;;
7729;SDS011;3908;52.310;7.230;2023-03-16T13:31:53;4.13;;;2.40;;
7729;SDS011;3908;52.310;7.230;2023-03-16T13:34:45;2.97;;;2.37;;
7729;SDS011;3908;52.310;7.230;2023-03-16T13:37:33;3.23;;;2.40;;
7729;SDS011;3908;52.310;7.230;2023-03-16T13:40:20;2.97;;;2.20;;
7729;SDS011;3908;52.310;7.230;2023-03-16T13:43:11;5.00;;;2.40;;
7729;SDS011;3908;52.310;7.230;2023-03-16T13:45:58;4.57;;;2.80;;
7729;SDS011;3908;52.310;7.230;2023-03-16T13:48:47;4.27;;;2.43;;
7729;SDS011;3908;52.310;7.230;2023-03-16T13:51:35;7.20;;;2.70;;
7729;SDS011;3908;52.310;7.230;2023-03-16T13:54:22;6.60;;;2.73;;
7729;SDS011;3908;52.310;7.230;2023-03-16T13:57:10;5.27;;;2.90;;
7729;SDS011;3908;52.310;7.230;2023-03-16T14:00:02;4.37;;;2.80;;
7729;SDS011;3908;52.310;7.230;2023-03-16T14:02:50;3.47;;;2.57;;
7729;SDS011;3908;52.310;7.230;2023-03-16T14:05:39;3.67;;;2.30;;
7729;SDS011;3908;52.310;7.230;2023-03-16T14:08:26;3.50;;;2.97;;
7729;SDS011;3908;52.310;7.230;2023-03-16T14:11:14;4.00;;;2.30;;
7729;SDS011;3908;52.310;7.230;2023-03-16T14:14:11;5.77;;;2.47;;
7729;SDS011;3908;52.310;7.230;2023-03-16T14:16:59;3.97;;;2.60;;
7729;SDS011;3908;52.310;7.230;2023-03-16T14:19:47;3.83;;;2.60;;
7729;SDS011;3908;52.310;7.230;2023-03-16T14:22:37;5.23;;;2.53;;
7729;SDS011;3908;52.310;7.230;2023-03-16T14:25:24;3.40;;;2.57;;
7729;SDS011;3908;52.310;7.230;2023-03-16T14:28:13;6.23;;;2.30;;
7729;SDS011;3908;52.310;7.230;2023-03-16T14:31:02;4.37;;;2.67;;
7729;SDS011;3908;52.310;7.230;2023-03-16T14:34:00;4.43;;;2.63;;
7729;SDS011;3908;52.310;7.230;2023-03-16T14:36:48;3.97;;;2.37;;
7729;SDS011;3908;52.310;7.230;2023-03-16T14:39:36;3.37;;;2.60;;
7729;SDS011;3908;52.310;7.230;2023-03-16T14:42:25;5.53;;;2.83;;
7729;SDS011;3908;52.310;7.230;2023-03-16T14:45:13;3.63;;;2.90;;
7729;SDS011;3908;52.310;7.230;2023-03-16T14:48:02;3.60;;;2.70;;
7729;SDS011;3908;52.310;7.230;2023-03-16T14:50:51;5.17;;;2.53;;
7729;SDS011;3908;52.310;7.230;2023-03-16T14:53:39;4.30;;;2.40;;
7729;SDS011;3908;52.310;7.230;2023-03-16T14:56:31;7.63;;;2.67;;
7729;SDS011;3908;52.310;7.230;2023-03-16T14:59:19;3.37;;;2.50;;
7729;SDS011;3908;52.310;7.230;2023-03-16T15:02:08;3.37;;;2.40;;
7729;SDS011;3908;52.310;7.230;2023-03-16T15:04:58;5.73;;;2.47;;
7729;SDS011;3908;52.310;7.230;2023-03-16T15:07:46;4.47;;;2.60;;
7729;SDS011;3908;52.310;7.230;2023-03-16T15:10:35;4.00;;;2.07;;
7729;SDS011;3908;52.310;7.230;2023-03-16T15:13:23;5.70;;;2.70;;
7729;SDS011;3908;52.310;7.230;2023-03-16T15:16:36;3.33;;;2.20;;
7729;SDS011;3908;52.310;7.230;2023-03-16T15:19:23;3.83;;;2.27;;
7729;SDS011;3908;52.310;7.230;2023-03-16T15:22:10;3.57;;;2.17;;
7729;SDS011;3908;52.310;7.230;2023-03-16T15:24:58;3.00;;;2.07;;
7729;SDS011;3908;52.310;7.230;2023-03-16T15:27:45;3.47;;;2.37;;
7729;SDS011;3908;52.310;7.230;2023-03-16T15:30:33;4.63;;;2.40;;
7729;SDS011;3908;52.310;7.230;2023-03-16T15:33:20;4.07;;;2.63;;
7729;SDS011;3908;52.310;7.230;2023-03-16T15:36:10;6.40;;;2.30;;
7729;SDS011;3908;52.310;7.230;2023-03-16T15:38:58;6.50;;;2.70;;
7729;SDS011;3908;52.310;7.230;2023-03-16T15:41:46;2.60;;;2.17;;
7729;SDS011;3908;52.310;7.230;2023-03-16T15:44:33;4.27;;;2.10;;
7729;SDS011;3908;52.310;7.230;2023-03-16T15:47:21;3.40;;;2.03;;
7729;SDS011;3908;52.310;7.230;2023-03-16T15:50:09;4.77;;;2.70;;
7729;SDS011;3908;52.310;7.230;2023-03-16T15:52:57;6.97;;;2.47;;
7729;SDS011;3908;52.310;7.230;2023-03-16T15:55:45;2.87;;;2.27;;
7729;SDS011;3908;52.310;7.230;2023-03-16T15:58:33;3.57;;;2.20;;
7729;SDS011;3908;52.310;7.230;2023-03-16T16:01:21;4.13;;;2.07;;
7729;SDS011;3908;52.310;7.230;2023-03-16T16:04:11;3.97;;;2.20;;
7729;SDS011;3908;52.310;7.230;2023-03-16T16:06:58;3.23;;;2.27;;
7729;SDS011;3908;52.310;7.230;2023-03-16T16:09:47;6.23;;;1.93;;
7729;SDS011;3908;52.310;7.230;2023-03-16T16:12:34;2.90;;;2.10;;
7729;SDS011;3908;52.310;7.230;2023-03-16T16:15:21;2.90;;;2.17;;
7729;SDS011;3908;52.310;7.230;2023-03-16T16:18:16;4.37;;;2.30;;
7729;SDS011;3908;52.310;7.230;2023-03-16T16:21:13;6.67;;;2.33;;
7729;SDS011;3908;52.310;7.230;2023-03-16T16:24:00;4.77;;;2.80;;
7729;SDS011;3908;52.310;7.230;2023-03-16T16:26:48;5.03;;;2.13;;
7729;SDS011;3908;52.310;7.230;2023-03-16T16:29:36;3.37;;;2.23;;
7729;SDS011;3908;52.310;7.230;2023-03-16T16:32:23;5.00;;;2.50;;
7729;SDS011;3908;52.310;7.230;2023-03-16T16:35:11;5.47;;;2.30;;
7729;SDS011;3908;52.310;7.230;2023-03-16T16:37:59;3.70;;;2.63;;
7729;SDS011;3908;52.310;7.230;2023-03-16T16:40:46;2.47;;;2.23;;
7729;SDS011;3908;52.310;7.230;2023-03-16T16:43:34;2.60;;;2.10;;
7729;SDS011;3908;52.310;7.230;2023-03-16T16:46:23;4.37;;;2.13;;
7729;SDS011;3908;52.310;7.230;2023-03-16T16:49:12;4.50;;;2.30;;
7729;SDS011;3908;52.310;7.230;2023-03-16T16:51:59;4.50;;;2.40;;
7729;SDS011;3908;52.310;7.230;2023-03-16T16:54:48;4.23;;;2.47;;
7729;SDS011;3908;52.310;7.230;2023-03-16T16:57:35;4.60;;;2.47;;
7729;SDS011;3908;52.310;7.230;2023-03-16T17:00:22;3.40;;;2.27;;
7729;SDS011;3908;52.310;7.230;2023-03-16T17:03:18;4.37;;;2.70;;
7729;SDS011;3908;52.310;7.230;2023-03-16T17:06:06;4.63;;;2.47;;
7729;SDS011;3908;52.310;7.230;2023-03-16T17:08:55;5.50;;;2.30;;
7729;SDS011;3908;52.310;7.230;2023-03-16T17:11:43;4.03;;;2.43;;
7729;SDS011;3908;52.310;7.230;2023-03-16T17:14:30;4.57;;;2.83;;
7729;SDS011;3908;52.310;7.230;2023-03-16T17:17:17;4.53;;;2.60;;
7729;SDS011;3908;52.310;7.230;2023-03-16T17:20:08;5.33;;;2.50;;
7729;SDS011;3908;52.310;7.230;2023-03-16T17:22:59;3.03;;;2.50;;
7729;SDS011;3908;52.310;7.230;2023-03-16T17:25:45;5.30;;;2.43;;
7729;SDS011;3908;52.310;7.230;2023-03-16T17:28:35;3.47;;;2.77;;
7729;SDS011;3908;52.310;7.230;2023-03-16T17:31:25;4.60;;;2.97;;
7729;SDS011;3908;52.310;7.230;2023-03-16T17:34:13;6.87;;;2.77;;
7729;SDS011;3908;52.310;7.230;2023-03-16T17:37:01;7.03;;;3.10;;